KBRY/BRY METAR and TAF weather

Enter ICAO airport designator
Station Type Date Time Source
KBRY METAR 2020/01/20 10:55 UTC NOAA

KBRY 201055Z AUTO 01004KT 10SM SCT018 M09/M12 A3050 RMK AO1


Station Type Date Time Source
KBRY Decoded METAR 2020/01/20 10:55 UTC NOAA

Station name not available
Jan 20, 2020 - 05:55 AM EST / 2020.01.20 1055 UTC
Wind: from the N (010 degrees) at 5 MPH (4 KT):0
Visibility: 10 mile(s):0
Sky conditions: partly cloudy
Temperature: 15 F (-9 C)
Windchill: 6 F (-14 C):1
Dew Point: 10 F (-12 C)
Relative Humidity: 78%
Pressure (altimeter): 30.5 in. Hg (1032 hPa)
ob: KBRY 201055Z AUTO 01004KT 10SM SCT018 M09/M12 A3050 RMK AO1
cycle: 11

Station Type Date Time Source
KBRY TAF UTC NOAA

Error!

Example: see airport list